sensor_id;sensor_type;location;lat;lon;timestamp;temperature;humidity
66096;SHT31;53861;53.422;14.530;2022-11-15T00:00:47;6.35;94.94
66096;SHT31;53861;53.422;14.530;2022-11-15T00:03:14;6.38;94.43
66096;SHT31;53861;53.422;14.530;2022-11-15T00:05:41;6.41;94.83
66096;SHT31;53861;53.422;14.530;2022-11-15T00:08:10;6.28;94.64
66096;SHT31;53861;53.422;14.530;2022-11-15T00:10:37;6.46;94.82
66096;SHT31;53861;53.422;14.530;2022-11-15T00:13:05;6.46;94.45
66096;SHT31;53861;53.422;14.530;2022-11-15T00:15:34;6.56;94.57
66096;SHT31;53861;53.422;14.530;2022-11-15T00:18:02;6.50;94.53
66096;SHT31;53861;53.422;14.530;2022-11-15T00:20:29;6.52;94.53
66096;SHT31;53861;53.422;14.530;2022-11-15T00:22:56;6.45;94.43
66096;SHT31;53861;53.422;14.530;2022-11-15T00:25:23;6.39;94.86
66096;SHT31;53861;53.422;14.530;2022-11-15T00:27:50;6.33;95.02
66096;SHT31;53861;53.422;14.530;2022-11-15T00:30:18;6.41;95.26
66096;SHT31;53861;53.422;14.530;2022-11-15T00:32:44;6.52;95.15
66096;SHT31;53861;53.422;14.530;2022-11-15T00:35:13;6.55;95.00
66096;SHT31;53861;53.422;14.530;2022-11-15T00:37:40;6.57;94.83
66096;SHT31;53861;53.422;14.530;2022-11-15T00:40:08;6.59;94.91
66096;SHT31;53861;53.422;14.530;2022-11-15T00:42:35;6.62;94.75
66096;SHT31;53861;53.422;14.530;2022-11-15T00:45:02;6.52;94.71
66096;SHT31;53861;53.422;14.530;2022-11-15T00:47:29;6.52;95.62
66096;SHT31;53861;53.422;14.530;2022-11-15T00:49:56;6.55;95.75
66096;SHT31;53861;53.422;14.530;2022-11-15T00:52:24;6.65;95.37
66096;SHT31;53861;53.422;14.530;2022-11-15T00:54:51;6.65;95.17
66096;SHT31;53861;53.422;14.530;2022-11-15T00:57:18;6.62;95.21
66096;SHT31;53861;53.422;14.530;2022-11-15T00:59:45;6.62;95.02
66096;SHT31;53861;53.422;14.530;2022-11-15T01:02:12;6.65;94.98
66096;SHT31;53861;53.422;14.530;2022-11-15T01:04:39;6.66;94.97
66096;SHT31;53861;53.422;14.530;2022-11-15T01:07:06;6.57;95.19
66096;SHT31;53861;53.422;14.530;2022-11-15T01:09:34;6.57;95.74
66096;SHT31;53861;53.422;14.530;2022-11-15T01:12:01;6.57;96.10
66096;SHT31;53861;53.422;14.530;2022-11-15T01:14:28;6.57;95.95
66096;SHT31;53861;53.422;14.530;2022-11-15T01:16:55;6.68;95.28
66096;SHT31;53861;53.422;14.530;2022-11-15T01:19:22;6.73;95.50
66096;SHT31;53861;53.422;14.530;2022-11-15T01:21:49;6.86;95.17
66096;SHT31;53861;53.422;14.530;2022-11-15T01:24:16;6.82;94.59
66096;SHT31;53861;53.422;14.530;2022-11-15T01:26:44;6.86;94.72
66096;SHT31;53861;53.422;14.530;2022-11-15T01:29:11;6.77;94.89
66096;SHT31;53861;53.422;14.530;2022-11-15T01:31:39;6.77;94.86
66096;SHT31;53861;53.422;14.530;2022-11-15T01:34:05;6.69;94.98
66096;SHT31;53861;53.422;14.530;2022-11-15T01:36:33;6.71;95.08
66096;SHT31;53861;53.422;14.530;2022-11-15T01:39:00;6.69;95.18
66096;SHT31;53861;53.422;14.530;2022-11-15T01:41:28;6.80;95.22
66096;SHT31;53861;53.422;14.530;2022-11-15T01:46:39;6.94;94.81
66096;SHT31;53861;53.422;14.530;2022-11-15T01:49:10;6.93;94.49
66096;SHT31;53861;53.422;14.530;2022-11-15T01:51:38;7.01;94.18
66096;SHT31;53861;53.422;14.530;2022-11-15T01:54:06;6.97;94.61
66096;SHT31;53861;53.422;14.530;2022-11-15T01:56:36;6.96;94.09
66096;SHT31;53861;53.422;14.530;2022-11-15T01:59:05;6.76;94.67
66096;SHT31;53861;53.422;14.530;2022-11-15T02:01:32;6.82;94.79
66096;SHT31;53861;53.422;14.530;2022-11-15T02:04:02;6.84;94.88
66096;SHT31;53861;53.422;14.530;2022-11-15T02:06:30;6.93;94.79
66096;SHT31;53861;53.422;14.530;2022-11-15T02:08:58;6.94;94.52
66096;SHT31;53861;53.422;14.530;2022-11-15T02:11:25;6.97;94.72
66096;SHT31;53861;53.422;14.530;2022-11-15T02:13:52;7.01;94.64
66096;SHT31;53861;53.422;14.530;2022-11-15T02:16:22;6.97;94.20
66096;SHT31;53861;53.422;14.530;2022-11-15T02:18:54;7.06;94.67
66096;SHT31;53861;53.422;14.530;2022-11-15T02:21:26;6.92;93.94
66096;SHT31;53861;53.422;14.530;2022-11-15T02:26:46;7.06;94.77
66096;SHT31;53861;53.422;14.530;2022-11-15T02:29:27;7.04;94.40
66096;SHT31;53861;53.422;14.530;2022-11-15T02:31:59;7.06;94.32
66096;SHT31;53861;53.422;14.530;2022-11-15T02:34:30;6.84;94.39
66096;SHT31;53861;53.422;14.530;2022-11-15T02:37:01;6.75;94.79
66096;SHT31;53861;53.422;14.530;2022-11-15T02:39:31;6.82;94.97
66096;SHT31;53861;53.422;14.530;2022-11-15T02:42:02;6.90;94.63
66096;SHT31;53861;53.422;14.530;2022-11-15T02:44:30;6.92;95.12
66096;SHT31;53861;53.422;14.530;2022-11-15T02:47:00;6.84;94.83
66096;SHT31;53861;53.422;14.530;2022-11-15T02:49:41;6.92;94.28
66096;SHT31;53861;53.422;14.530;2022-11-15T02:52:08;6.90;93.94
66096;SHT31;53861;53.422;14.530;2022-11-15T02:54:35;6.90;94.07
66096;SHT31;53861;53.422;14.530;2022-11-15T02:57:04;6.82;94.80
66096;SHT31;53861;53.422;14.530;2022-11-15T02:59:36;6.80;94.89
66096;SHT31;53861;53.422;14.530;2022-11-15T03:02:11;6.87;94.93
66096;SHT31;53861;53.422;14.530;2022-11-15T03:04:43;7.01;94.83
66096;SHT31;53861;53.422;14.530;2022-11-15T03:07:11;6.93;94.19
66096;SHT31;53861;53.422;14.530;2022-11-15T03:09:42;6.76;95.23
66096;SHT31;53861;53.422;14.530;2022-11-15T03:12:11;6.80;94.88
66096;SHT31;53861;53.422;14.530;2022-11-15T03:14:40;6.84;95.03
66096;SHT31;53861;53.422;14.530;2022-11-15T03:17:11;6.83;94.50
66096;SHT31;53861;53.422;14.530;2022-11-15T03:19:41;6.79;94.25
66096;SHT31;53861;53.422;14.530;2022-11-15T03:22:11;6.73;94.58
66096;SHT31;53861;53.422;14.530;2022-11-15T03:24:40;6.71;94.39
66096;SHT31;53861;53.422;14.530;2022-11-15T03:27:08;6.72;94.93
66096;SHT31;53861;53.422;14.530;2022-11-15T03:29:37;6.75;95.27
66096;SHT31;53861;53.422;14.530;2022-11-15T03:32:06;6.65;94.90
66096;SHT31;53861;53.422;14.530;2022-11-15T03:34:36;6.66;95.20
66096;SHT31;53861;53.422;14.530;2022-11-15T03:37:04;6.71;95.08
66096;SHT31;53861;53.422;14.530;2022-11-15T03:39:32;6.73;94.74
66096;SHT31;53861;53.422;14.530;2022-11-15T03:42:02;6.76;95.17
66096;SHT31;53861;53.422;14.530;2022-11-15T03:44:39;6.73;94.85
66096;SHT31;53861;53.422;14.530;2022-11-15T03:47:07;6.73;95.17
66096;SHT31;53861;53.422;14.530;2022-11-15T03:49:38;6.69;95.30
66096;SHT31;53861;53.422;14.530;2022-11-15T03:52:07;6.72;94.83
66096;SHT31;53861;53.422;14.530;2022-11-15T03:54:36;6.73;94.89
66096;SHT31;53861;53.422;14.530;2022-11-15T03:57:03;6.73;95.00
66096;SHT31;53861;53.422;14.530;2022-11-15T03:59:30;6.71;95.03
66096;SHT31;53861;53.422;14.530;2022-11-15T04:01:57;6.76;95.38
66096;SHT31;53861;53.422;14.530;2022-11-15T04:04:23;6.82;95.04
66096;SHT31;53861;53.422;14.530;2022-11-15T04:06:52;6.76;95.32
66096;SHT31;53861;53.422;14.530;2022-11-15T04:09:18;6.82;95.00
66096;SHT31;53861;53.422;14.530;2022-11-15T04:11:45;6.75;95.11
66096;SHT31;53861;53.422;14.530;2022-11-15T04:14:12;6.66;94.83
66096;SHT31;53861;53.422;14.530;2022-11-15T04:16:39;6.56;95.48
66096;SHT31;53861;53.422;14.530;2022-11-15T04:19:06;6.62;95.73
66096;SHT31;53861;53.422;14.530;2022-11-15T04:21:49;6.71;95.48
66096;SHT31;53861;53.422;14.530;2022-11-15T04:24:34;6.66;94.42
66096;SHT31;53861;53.422;14.530;2022-11-15T04:27:01;6.59;94.88
66096;SHT31;53861;53.422;14.530;2022-11-15T04:29:28;6.56;95.92
66096;SHT31;53861;53.422;14.530;2022-11-15T04:32:01;6.55;95.67
66096;SHT31;53861;53.422;14.530;2022-11-15T04:34:28;6.66;95.54
66096;SHT31;53861;53.422;14.530;2022-11-15T04:36:55;6.55;94.72
66096;SHT31;53861;53.422;14.530;2022-11-15T04:39:43;6.49;95.14
66096;SHT31;53861;53.422;14.530;2022-11-15T04:42:10;6.49;95.28
66096;SHT31;53861;53.422;14.530;2022-11-15T04:44:37;6.59;96.09
66096;SHT31;53861;53.422;14.530;2022-11-15T04:47:04;6.68;95.81
66096;SHT31;53861;53.422;14.530;2022-11-15T04:49:31;6.63;95.60
66096;SHT31;53861;53.422;14.530;2022-11-15T04:51:58;6.71;95.41
66096;SHT31;53861;53.422;14.530;2022-11-15T04:54:25;6.83;95.33
66096;SHT31;53861;53.422;14.530;2022-11-15T04:56:53;6.87;94.84
66096;SHT31;53861;53.422;14.530;2022-11-15T04:59:20;6.80;94.55
66096;SHT31;53861;53.422;14.530;2022-11-15T05:01:47;6.63;94.93
66096;SHT31;53861;53.422;14.530;2022-11-15T05:04:14;6.71;95.26
66096;SHT31;53861;53.422;14.530;2022-11-15T05:06:46;6.59;94.58
66096;SHT31;53861;53.422;14.530;2022-11-15T05:09:12;6.72;95.27
66096;SHT31;53861;53.422;14.530;2022-11-15T05:11:40;6.53;95.30
66096;SHT31;53861;53.422;14.530;2022-11-15T05:14:08;6.53;95.35
66096;SHT31;53861;53.422;14.530;2022-11-15T05:16:35;6.50;95.19
66096;SHT31;53861;53.422;14.530;2022-11-15T05:19:02;6.57;95.71
66096;SHT31;53861;53.422;14.530;2022-11-15T05:21:29;6.53;95.19
66096;SHT31;53861;53.422;14.530;2022-11-15T05:23:56;6.57;95.58
66096;SHT31;53861;53.422;14.530;2022-11-15T05:26:23;6.55;95.25
66096;SHT31;53861;53.422;14.530;2022-11-15T05:28:52;6.56;94.78
66096;SHT31;53861;53.422;14.530;2022-11-15T05:31:20;6.53;95.37
66096;SHT31;53861;53.422;14.530;2022-11-15T05:33:48;6.65;95.43
66096;SHT31;53861;53.422;14.530;2022-11-15T05:36:16;6.62;95.26
66096;SHT31;53861;53.422;14.530;2022-11-15T05:38:44;6.57;95.50
66096;SHT31;53861;53.422;14.530;2022-11-15T05:41:12;6.56;95.79
66096;SHT31;53861;53.422;14.530;2022-11-15T05:43:39;6.68;95.83
66096;SHT31;53861;53.422;14.530;2022-11-15T05:46:07;6.82;95.48
66096;SHT31;53861;53.422;14.530;2022-11-15T05:48:35;6.82;94.98
66096;SHT31;53861;53.422;14.530;2022-11-15T05:51:04;6.80;94.96
66096;SHT31;53861;53.422;14.530;2022-11-15T05:53:31;6.83;94.92
66096;SHT31;53861;53.422;14.530;2022-11-15T05:55:58;6.77;95.26
66096;SHT31;53861;53.422;14.530;2022-11-15T05:58:25;6.69;94.41
66096;SHT31;53861;53.422;14.530;2022-11-15T06:00:52;6.77;95.11
66096;SHT31;53861;53.422;14.530;2022-11-15T06:03:20;6.75;95.05
66096;SHT31;53861;53.422;14.530;2022-11-15T06:05:48;6.61;94.55
66096;SHT31;53861;53.422;14.530;2022-11-15T06:08:15;6.53;95.44
66096;SHT31;53861;53.422;14.530;2022-11-15T06:10:42;6.52;95.57
66096;SHT31;53861;53.422;14.530;2022-11-15T06:13:09;6.42;94.74
66096;SHT31;53861;53.422;14.530;2022-11-15T06:15:36;6.43;94.45
66096;SHT31;53861;53.422;14.530;2022-11-15T06:18:03;6.26;94.90
66096;SHT31;53861;53.422;14.530;2022-11-15T06:20:30;6.46;95.89
66096;SHT31;53861;53.422;14.530;2022-11-15T06:22:58;6.31;95.58
66096;SHT31;53861;53.422;14.530;2022-11-15T06:25:25;6.42;95.91
66096;SHT31;53861;53.422;14.530;2022-11-15T06:27:52;6.35;94.86
66096;SHT31;53861;53.422;14.530;2022-11-15T06:30:19;6.42;95.61
66096;SHT31;53861;53.422;14.530;2022-11-15T06:32:47;6.46;95.17
66096;SHT31;53861;53.422;14.530;2022-11-15T06:35:13;6.53;94.97
66096;SHT31;53861;53.422;14.530;2022-11-15T06:37:41;6.45;94.98
66096;SHT31;53861;53.422;14.530;2022-11-15T06:40:10;6.52;95.54
66096;SHT31;53861;53.422;14.530;2022-11-15T06:42:37;6.48;95.28
66096;SHT31;53861;53.422;14.530;2022-11-15T06:45:04;6.46;95.36
66096;SHT31;53861;53.422;14.530;2022-11-15T06:47:31;6.39;94.70
66096;SHT31;53861;53.422;14.530;2022-11-15T06:49:58;6.33;94.76
66096;SHT31;53861;53.422;14.530;2022-11-15T06:52:25;6.35;94.88
66096;SHT31;53861;53.422;14.530;2022-11-15T06:54:52;6.55;95.24
66096;SHT31;53861;53.422;14.530;2022-11-15T06:57:20;6.49;94.87
66096;SHT31;53861;53.422;14.530;2022-11-15T06:59:47;6.63;95.83
66096;SHT31;53861;53.422;14.530;2022-11-15T07:02:14;6.68;94.96
66096;SHT31;53861;53.422;14.530;2022-11-15T07:04:41;6.72;94.59
66096;SHT31;53861;53.422;14.530;2022-11-15T07:07:08;6.55;94.09
66096;SHT31;53861;53.422;14.530;2022-11-15T07:09:34;6.66;94.56
66096;SHT31;53861;53.422;14.530;2022-11-15T07:12:01;6.57;94.44
66096;SHT31;53861;53.422;14.530;2022-11-15T07:14:30;6.56;93.78
66096;SHT31;53861;53.422;14.530;2022-11-15T07:16:56;6.50;93.92
66096;SHT31;53861;53.422;14.530;2022-11-15T07:19:23;6.61;95.06
66096;SHT31;53861;53.422;14.530;2022-11-15T07:21:50;6.68;94.46
66096;SHT31;53861;53.422;14.530;2022-11-15T07:24:17;6.69;94.36
66096;SHT31;53861;53.422;14.530;2022-11-15T07:26:44;6.72;93.79
66096;SHT31;53861;53.422;14.530;2022-11-15T07:29:11;6.79;93.07
66096;SHT31;53861;53.422;14.530;2022-11-15T07:31:39;6.79;93.31
66096;SHT31;53861;53.422;14.530;2022-11-15T07:34:06;6.75;94.31
66096;SHT31;53861;53.422;14.530;2022-11-15T07:36:34;6.73;93.78
66096;SHT31;53861;53.422;14.530;2022-11-15T07:39:00;6.55;93.93
66096;SHT31;53861;53.422;14.530;2022-11-15T07:41:28;6.57;94.29
66096;SHT31;53861;53.422;14.530;2022-11-15T07:43:55;6.65;94.19
66096;SHT31;53861;53.422;14.530;2022-11-15T07:46:23;6.61;93.66
66096;SHT31;53861;53.422;14.530;2022-11-15T07:48:51;6.61;94.40
66096;SHT31;53861;53.422;14.530;2022-11-15T07:51:18;6.73;93.69
66096;SHT31;53861;53.422;14.530;2022-11-15T07:53:45;6.66;94.11
66096;SHT31;53861;53.422;14.530;2022-11-15T07:56:12;6.69;94.22
66096;SHT31;53861;53.422;14.530;2022-11-15T07:58:39;6.75;93.79
66096;SHT31;53861;53.422;14.530;2022-11-15T08:01:07;6.73;93.30
66096;SHT31;53861;53.422;14.530;2022-11-15T08:03:34;6.56;94.00
66096;SHT31;53861;53.422;14.530;2022-11-15T08:06:03;6.80;94.94
66096;SHT31;53861;53.422;14.530;2022-11-15T08:08:30;6.69;94.52
66096;SHT31;53861;53.422;14.530;2022-11-15T08:10:57;6.71;94.05
66096;SHT31;53861;53.422;14.530;2022-11-15T08:13:24;6.79;94.24
66096;SHT31;53861;53.422;14.530;2022-11-15T08:15:56;6.79;93.79
66096;SHT31;53861;53.422;14.530;2022-11-15T08:18:23;6.82;92.83
66096;SHT31;53861;53.422;14.530;2022-11-15T08:20:50;6.79;93.02
66096;SHT31;53861;53.422;14.530;2022-11-15T08:23:18;6.84;94.37
66096;SHT31;53861;53.422;14.530;2022-11-15T08:25:45;6.77;92.49
66096;SHT31;53861;53.422;14.530;2022-11-15T08:28:12;6.79;93.70
66096;SHT31;53861;53.422;14.530;2022-11-15T08:30:39;6.86;94.02
66096;SHT31;53861;53.422;14.530;2022-11-15T08:33:10;6.87;93.36
66096;SHT31;53861;53.422;14.530;2022-11-15T08:35:37;6.93;93.84
66096;SHT31;53861;53.422;14.530;2022-11-15T08:38:04;6.90;93.14
66096;SHT31;53861;53.422;14.530;2022-11-15T08:40:33;6.92;92.43
66096;SHT31;53861;53.422;14.530;2022-11-15T08:43:00;6.77;93.39
66096;SHT31;53861;53.422;14.530;2022-11-15T08:45:28;6.94;93.44
66096;SHT31;53861;53.422;14.530;2022-11-15T08:47:54;6.93;91.69
66096;SHT31;53861;53.422;14.530;2022-11-15T08:50:21;6.77;92.83
66096;SHT31;53861;53.422;14.530;2022-11-15T08:52:48;6.77;93.58
66096;SHT31;53861;53.422;14.530;2022-11-15T08:55:15;6.90;93.11
66096;SHT31;53861;53.422;14.530;2022-11-15T08:57:43;6.89;93.41
66096;SHT31;53861;53.422;14.530;2022-11-15T09:00:11;6.89;93.90
66096;SHT31;53861;53.422;14.530;2022-11-15T09:02:38;7.04;93.80
66096;SHT31;53861;53.422;14.530;2022-11-15T09:05:06;7.00;93.27
66096;SHT31;53861;53.422;14.530;2022-11-15T09:07:33;7.11;92.13
66096;SHT31;53861;53.422;14.530;2022-11-15T09:10:01;7.25;91.91
66096;SHT31;53861;53.422;14.530;2022-11-15T09:12:28;7.25;91.14
66096;SHT31;53861;53.422;14.530;2022-11-15T09:14:56;7.03;90.77
66096;SHT31;53861;53.422;14.530;2022-11-15T09:17:23;7.10;92.50
66096;SHT31;53861;53.422;14.530;2022-11-15T09:19:50;7.13;92.52
66096;SHT31;53861;53.422;14.530;2022-11-15T09:22:17;7.20;93.24
66096;SHT31;53861;53.422;14.530;2022-11-15T09:24:44;7.25;93.25
66096;SHT31;53861;53.422;14.530;2022-11-15T09:27:11;7.23;92.91
66096;SHT31;53861;53.422;14.530;2022-11-15T09:29:38;7.32;92.69
66096;SHT31;53861;53.422;14.530;2022-11-15T09:32:06;7.27;92.11
66096;SHT31;53861;53.422;14.530;2022-11-15T09:34:33;7.30;91.83
66096;SHT31;53861;53.422;14.530;2022-11-15T09:37:00;7.30;92.12
66096;SHT31;53861;53.422;14.530;2022-11-15T09:39:27;7.23;92.41
66096;SHT31;53861;53.422;14.530;2022-11-15T09:42:18;7.27;91.90
66096;SHT31;53861;53.422;14.530;2022-11-15T09:44:51;7.13;91.83
66096;SHT31;53861;53.422;14.530;2022-11-15T09:47:28;7.30;92.14
66096;SHT31;53861;53.422;14.530;2022-11-15T09:49:59;7.20;92.19
66096;SHT31;53861;53.422;14.530;2022-11-15T09:52:26;7.37;93.16
66096;SHT31;53861;53.422;14.530;2022-11-15T09:54:54;7.47;92.24
66096;SHT31;53861;53.422;14.530;2022-11-15T09:57:22;7.45;92.23
66096;SHT31;53861;53.422;14.530;2022-11-15T09:59:53;7.58;92.53
66096;SHT31;53861;53.422;14.530;2022-11-15T10:02:33;7.57;92.29
66096;SHT31;53861;53.422;14.530;2022-11-15T10:05:03;7.71;91.80
66096;SHT31;53861;53.422;14.530;2022-11-15T10:07:31;7.74;91.70
66096;SHT31;53861;53.422;14.530;2022-11-15T10:10:00;7.68;92.12
66096;SHT31;53861;53.422;14.530;2022-11-15T10:12:28;7.62;91.66
66096;SHT31;53861;53.422;14.530;2022-11-15T10:14:58;7.76;92.21
66096;SHT31;53861;53.422;14.530;2022-11-15T10:17:30;7.71;91.47
66096;SHT31;53861;53.422;14.530;2022-11-15T10:20:09;7.95;92.97
66096;SHT31;53861;53.422;14.530;2022-11-15T10:22:38;7.78;91.40
66096;SHT31;53861;53.422;14.530;2022-11-15T10:25:15;7.69;91.10
66096;SHT31;53861;53.422;14.530;2022-11-15T10:27:43;7.68;91.88
66096;SHT31;53861;53.422;14.530;2022-11-15T10:30:12;7.67;91.62
66096;SHT31;53861;53.422;14.530;2022-11-15T10:32:40;7.86;91.55
66096;SHT31;53861;53.422;14.530;2022-11-15T10:35:24;7.98;90.96
66096;SHT31;53861;53.422;14.530;2022-11-15T10:37:51;8.12;91.90
66096;SHT31;53861;53.422;14.530;2022-11-15T10:40:20;8.26;90.75
66096;SHT31;53861;53.422;14.530;2022-11-15T10:42:47;8.06;90.33
66096;SHT31;53861;53.422;14.530;2022-11-15T10:45:24;8.23;91.39
66096;SHT31;53861;53.422;14.530;2022-11-15T10:47:51;8.44;90.41
66096;SHT31;53861;53.422;14.530;2022-11-15T10:50:29;8.43;90.94
66096;SHT31;53861;53.422;14.530;2022-11-15T10:52:57;8.39;91.14
66096;SHT31;53861;53.422;14.530;2022-11-15T10:55:26;8.30;89.95
66096;SHT31;53861;53.422;14.530;2022-11-15T10:57:54;8.30;89.82
66096;SHT31;53861;53.422;14.530;2022-11-15T11:00:32;8.46;88.81
66096;SHT31;53861;53.422;14.530;2022-11-15T11:03:00;8.30;89.51
66096;SHT31;53861;53.422;14.530;2022-11-15T11:05:31;8.29;90.06
66096;SHT31;53861;53.422;14.530;2022-11-15T11:08:00;8.49;89.56
66096;SHT31;53861;53.422;14.530;2022-11-15T11:10:28;8.70;89.63
66096;SHT31;53861;53.422;14.530;2022-11-15T11:12:55;8.54;89.39
66096;SHT31;53861;53.422;14.530;2022-11-15T11:15:22;8.65;89.62
66096;SHT31;53861;53.422;14.530;2022-11-15T11:17:53;8.75;89.52
66096;SHT31;53861;53.422;14.530;2022-11-15T11:20:24;8.64;87.87
66096;SHT31;53861;53.422;14.530;2022-11-15T11:23:00;8.59;89.10
66096;SHT31;53861;53.422;14.530;2022-11-15T11:25:30;8.59;88.83
66096;SHT31;53861;53.422;14.530;2022-11-15T11:30:43;8.51;89.29
66096;SHT31;53861;53.422;14.530;2022-11-15T11:33:16;8.56;88.33
66096;SHT31;53861;53.422;14.530;2022-11-15T11:35:54;8.64;88.44
66096;SHT31;53861;53.422;14.530;2022-11-15T11:38:44;8.78;90.02
66096;SHT31;53861;53.422;14.530;2022-11-15T11:41:16;8.87;88.52
66096;SHT31;53861;53.422;14.530;2022-11-15T11:43:48;9.00;88.17
66096;SHT31;53861;53.422;14.530;2022-11-15T11:49:15;9.12;87.40
66096;SHT31;53861;53.422;14.530;2022-11-15T11:51:45;8.97;88.56
66096;SHT31;53861;53.422;14.530;2022-11-15T11:54:14;8.82;87.94
66096;SHT31;53861;53.422;14.530;2022-11-15T11:56:44;8.68;89.98
66096;SHT31;53861;53.422;14.530;2022-11-15T11:59:15;8.72;89.59
66096;SHT31;53861;53.422;14.530;2022-11-15T12:01:43;8.77;88.79
66096;SHT31;53861;53.422;14.530;2022-11-15T12:04:11;8.63;88.82
66096;SHT31;53861;53.422;14.530;2022-11-15T12:06:41;8.64;88.75
66096;SHT31;53861;53.422;14.530;2022-11-15T12:09:14;8.43;89.13
66096;SHT31;53861;53.422;14.530;2022-11-15T12:11:43;8.29;91.47
66096;SHT31;53861;53.422;14.530;2022-11-15T12:14:18;8.32;90.95
66096;SHT31;53861;53.422;14.530;2022-11-15T12:16:46;8.40;90.88
66096;SHT31;53861;53.422;14.530;2022-11-15T12:19:13;8.47;89.97
66096;SHT31;53861;53.422;14.530;2022-11-15T12:21:42;8.26;89.93
66096;SHT31;53861;53.422;14.530;2022-11-15T12:24:12;8.32;90.04
66096;SHT31;53861;53.422;14.530;2022-11-15T12:26:44;8.26;89.94
66096;SHT31;53861;53.422;14.530;2022-11-15T12:29:15;8.25;90.88
66096;SHT31;53861;53.422;14.530;2022-11-15T12:31:43;8.26;90.19
66096;SHT31;53861;53.422;14.530;2022-11-15T12:34:16;8.28;89.58
66096;SHT31;53861;53.422;14.530;2022-11-15T12:36:55;8.30;90.41
66096;SHT31;53861;53.422;14.530;2022-11-15T12:40:03;8.20;91.51
66096;SHT31;53861;53.422;14.530;2022-11-15T12:44:59;8.23;89.85
66096;SHT31;53861;53.422;14.530;2022-11-15T12:47:27;8.20;90.10
66096;SHT31;53861;53.422;14.530;2022-11-15T12:49:54;8.20;91.58
66096;SHT31;53861;53.422;14.530;2022-11-15T12:52:20;8.09;91.25
66096;SHT31;53861;53.422;14.530;2022-11-15T12:54:55;8.09;91.06
66096;SHT31;53861;53.422;14.530;2022-11-15T12:57:27;8.00;90.90
66096;SHT31;53861;53.422;14.530;2022-11-15T12:59:56;8.05;91.59
66096;SHT31;53861;53.422;14.530;2022-11-15T13:02:25;8.20;91.61
66096;SHT31;53861;53.422;14.530;2022-11-15T13:04:54;8.25;90.80
66096;SHT31;53861;53.422;14.530;2022-11-15T13:10:07;8.16;91.72
66096;SHT31;53861;53.422;14.530;2022-11-15T13:12:56;8.12;90.89
66096;SHT31;53861;53.422;14.530;2022-11-15T13:18:28;7.90;91.98
66096;SHT31;53861;53.422;14.530;2022-11-15T13:20:55;7.82;92.54
66096;SHT31;53861;53.422;14.530;2022-11-15T13:23:22;7.75;92.67
66096;SHT31;53861;53.422;14.530;2022-11-15T13:25:55;7.88;92.21
66096;SHT31;53861;53.422;14.530;2022-11-15T13:28:28;7.89;92.17
66096;SHT31;53861;53.422;14.530;2022-11-15T13:30:58;7.93;91.94
66096;SHT31;53861;53.422;14.530;2022-11-15T13:33:25;7.99;92.33
66096;SHT31;53861;53.422;14.530;2022-11-15T13:35:54;8.02;91.32
66096;SHT31;53861;53.422;14.530;2022-11-15T13:38:25;8.07;90.82
66096;SHT31;53861;53.422;14.530;2022-11-15T13:40:53;8.05;91.15
66096;SHT31;53861;53.422;14.530;2022-11-15T13:43:25;7.98;90.63
66096;SHT31;53861;53.422;14.530;2022-11-15T13:46:05;7.85;91.22
66096;SHT31;53861;53.422;14.530;2022-11-15T13:48:32;7.72;91.44
66096;SHT31;53861;53.422;14.530;2022-11-15T13:50:59;7.71;91.67
66096;SHT31;53861;53.422;14.530;2022-11-15T13:53:26;7.72;92.09
66096;SHT31;53861;53.422;14.530;2022-11-15T13:55:53;7.74;91.96
66096;SHT31;53861;53.422;14.530;2022-11-15T13:58:22;7.64;92.21
66096;SHT31;53861;53.422;14.530;2022-11-15T14:00:48;7.61;92.28
66096;SHT31;53861;53.422;14.530;2022-11-15T14:03:26;7.67;92.11
66096;SHT31;53861;53.422;14.530;2022-11-15T14:06:03;7.61;92.05
66096;SHT31;53861;53.422;14.530;2022-11-15T14:08:32;7.57;92.26
66096;SHT31;53861;53.422;14.530;2022-11-15T14:11:06;7.59;92.65
66096;SHT31;53861;53.422;14.530;2022-11-15T14:13:33;7.59;92.44
66096;SHT31;53861;53.422;14.530;2022-11-15T14:16:12;7.55;92.58
66096;SHT31;53861;53.422;14.530;2022-11-15T14:18:42;7.54;92.35
66096;SHT31;53861;53.422;14.530;2022-11-15T14:21:09;7.44;92.21
66096;SHT31;53861;53.422;14.530;2022-11-15T14:23:36;7.51;92.89
66096;SHT31;53861;53.422;14.530;2022-11-15T14:26:02;7.45;93.28
66096;SHT31;53861;53.422;14.530;2022-11-15T14:28:30;7.57;93.04
66096;SHT31;53861;53.422;14.530;2022-11-15T14:30:59;7.54;92.79
66096;SHT31;53861;53.422;14.530;2022-11-15T14:33:27;7.59;92.37
66096;SHT31;53861;53.422;14.530;2022-11-15T14:35:56;7.57;92.48
66096;SHT31;53861;53.422;14.530;2022-11-15T14:38:24;7.30;93.24
66096;SHT31;53861;53.422;14.530;2022-11-15T14:40:51;7.37;93.07
66096;SHT31;53861;53.422;14.530;2022-11-15T14:43:19;7.45;93.30
66096;SHT31;53861;53.422;14.530;2022-11-15T14:45:46;7.48;93.20
66096;SHT31;53861;53.422;14.530;2022-11-15T14:48:12;7.44;93.46
66096;SHT31;53861;53.422;14.530;2022-11-15T14:50:39;7.43;93.59
66096;SHT31;53861;53.422;14.530;2022-11-15T14:53:10;7.44;93.50
66096;SHT31;53861;53.422;14.530;2022-11-15T14:55:38;7.54;93.03
66096;SHT31;53861;53.422;14.530;2022-11-15T14:58:05;7.58;92.91
66096;SHT31;53861;53.422;14.530;2022-11-15T15:00:33;7.54;92.97
66096;SHT31;53861;53.422;14.530;2022-11-15T15:03:00;7.52;93.43
66096;SHT31;53861;53.422;14.530;2022-11-15T15:05:29;7.55;92.98
66096;SHT31;53861;53.422;14.530;2022-11-15T15:07:57;7.52;93.12
66096;SHT31;53861;53.422;14.530;2022-11-15T15:10:25;7.57;93.14
66096;SHT31;53861;53.422;14.530;2022-11-15T15:12:53;7.52;92.66
66096;SHT31;53861;53.422;14.530;2022-11-15T15:15:21;7.47;92.75
66096;SHT31;53861;53.422;14.530;2022-11-15T15:17:49;7.48;92.79
66096;SHT31;53861;53.422;14.530;2022-11-15T15:20:16;7.44;92.72
66096;SHT31;53861;53.422;14.530;2022-11-15T15:22:43;7.38;92.70
66096;SHT31;53861;53.422;14.530;2022-11-15T15:25:19;7.35;93.64
66096;SHT31;53861;53.422;14.530;2022-11-15T15:27:48;7.35;93.13
66096;SHT31;53861;53.422;14.530;2022-11-15T15:30:15;7.25;92.90
66096;SHT31;53861;53.422;14.530;2022-11-15T15:32:42;7.18;94.11
66096;SHT31;53861;53.422;14.530;2022-11-15T15:35:11;7.21;93.82
66096;SHT31;53861;53.422;14.530;2022-11-15T15:37:38;7.18;93.88
66096;SHT31;53861;53.422;14.530;2022-11-15T15:40:08;7.24;94.32
66096;SHT31;53861;53.422;14.530;2022-11-15T15:42:38;7.21;94.17
66096;SHT31;53861;53.422;14.530;2022-11-15T15:45:07;7.30;93.82
66096;SHT31;53861;53.422;14.530;2022-11-15T15:47:33;7.24;93.84
66096;SHT31;53861;53.422;14.530;2022-11-15T15:50:00;7.30;93.90
66096;SHT31;53861;53.422;14.530;2022-11-15T15:52:28;7.28;93.83
66096;SHT31;53861;53.422;14.530;2022-11-15T15:54:54;7.35;93.80
66096;SHT31;53861;53.422;14.530;2022-11-15T15:57:24;7.38;93.80
66096;SHT31;53861;53.422;14.530;2022-11-15T15:59:51;7.43;93.54